Newburyport, MA (01950)

7:17 AM EST on February 20, 2017 (GMT -0500)
South End | | Change Station
Active Advisory: Small Craft Advisory

Elev 50 ft 42.81 °N, 70.87 °W | Updated 1 minute ago

Partly Cloudy
Partly Cloudy
36.6 °F
Feels Like 34 °F
N
3.8
Wind Variable Wind from NW
Gusts 8.3 mph

Today
High -- | Low -- °F
--% Chance of Precip.
Yesterday
High -- | Low -- °F
Precip. -- in
Pressure 30.08 in
Visibility 10.0 miles
Clouds Clear
Windchill 34 °F
Dew Point 26 °F
Humidity 66%
Rainfall 0.00 in
Snow Depth Not available.
6:33 AM 5:21 PM
Waning Crescent, 34% visible
METAR KLWM 201154Z 32004KT 10SM CLR 02/M05 A3008 RMK AO2 SLP185 T00221050 10078 20022 53034 $
Pressure 30.08 in
Visibility 10.0 miles
Clouds Clear
Windchill 34 °F
Dew Point 26 °F
Humidity 66%
Rainfall 0.00 in
Snow Depth Not available.
6:33 AM 5:21 PM
Waning Crescent, 34% visible
METAR KLWM 201154Z 32004KT 10SM CLR 02/M05 A3008 RMK AO2 SLP185 T00221050 10078 20022 53034 $

Get Your Daily Forecast Email!

Thanks for signing up!

Be on the lookout for a verification email in your inbox.

You'll start receiving the daily forecast at 8 AM.

×

10-Day Weather Forecast

Almanac

Astronomy

Feb. 20, 2017 Rise Set
Actual Time
Civil Twilight
Nautical Twilight
Astronomical Twilight
Moon
Length of Visible Light
Length of Day
Tomorrow will be .
, % of the Moon is Illuminated

Today's Extremes

State Highs State Lows

Community

WunderPhotos

Upload Photos

1,962,540 photos uploaded!

WunderBlog® & News

Nearby

Air Quality

  Air Quality AQ Index Pollutant
Not available.

Snow Depth

Station Depth Elevation

Earthquake Activity

City Distance Mag. Time & Date
Minimum magnitude displayed is 2.5.

Coastal Water Temperatures

Place Temperature

Stations

Nearby Weather Stations

Station Location Temp. Windchill Dew Point Humidity Wind Precip. Elev Updated Type
                   

Watches & Warnings

Small Craft Advisory
Issued: 2:51 AM EST Feb. 20, 2017 – National Weather Service

... Small Craft Advisory remains in effect until 7 PM EST this
evening...

* winds... north 10 to 20 kt with gusts up to 30 kt.

* Seas... 2 to 4 feet.

Precautionary/preparedness actions...

A Small Craft Advisory means that wind speeds of 25 to 33 knots
are expected to produce hazardous wave conditions to small craft.
Inexperienced mariners... especially those operating smaller
vessels should avoid navigating in these conditions.